sensor_id;sensor_type;location;lat;lon;timestamp;P1;durP1;ratioP1;P2;durP2;ratioP2
49876;SDS011;35771;48.978;9.294;2022-08-18T07:34:02;9.30;;;7.03;;
49876;SDS011;35771;48.978;9.294;2022-08-18T07:36:33;9.07;;;7.47;;
49876;SDS011;35771;48.978;9.294;2022-08-18T07:39:06;16.77;;;7.68;;
49876;SDS011;35771;48.978;9.294;2022-08-18T07:41:40;8.00;;;6.82;;
49876;SDS011;35771;48.978;9.294;2022-08-18T07:46:43;10.15;;;7.00;;
49876;SDS011;35771;48.978;9.294;2022-08-18T07:49:17;8.30;;;6.65;;
49876;SDS011;35771;48.978;9.294;2022-08-18T07:51:47;8.60;;;6.53;;
49876;SDS011;35771;48.978;9.294;2022-08-18T07:54:21;7.50;;;6.18;;
49876;SDS011;35771;48.978;9.294;2022-08-18T07:57:03;11.93;;;6.00;;
49876;SDS011;35771;48.978;9.294;2022-08-18T07:59:36;9.68;;;6.00;;
49876;SDS011;35771;48.978;9.294;2022-08-18T08:02:17;12.82;;;6.50;;
49876;SDS011;35771;48.978;9.294;2022-08-18T08:04:53;11.73;;;7.43;;
49876;SDS011;35771;48.978;9.294;2022-08-18T08:07:29;9.13;;;6.35;;
49876;SDS011;35771;48.978;9.294;2022-08-18T08:10:04;12.98;;;8.70;;
49876;SDS011;35771;48.978;9.294;2022-08-18T08:12:46;8.55;;;6.88;;
49876;SDS011;35771;48.978;9.294;2022-08-18T08:15:20;7.25;;;6.32;;
49876;SDS011;35771;48.978;9.294;2022-08-18T08:17:54;7.35;;;6.10;;
49876;SDS011;35771;48.978;9.294;2022-08-18T08:20:28;6.25;;;5.15;;
49876;SDS011;35771;48.978;9.294;2022-08-18T08:23:00;7.07;;;5.63;;
49876;SDS011;35771;48.978;9.294;2022-08-18T08:25:40;6.65;;;5.40;;
49876;SDS011;35771;48.978;9.294;2022-08-18T08:28:20;9.55;;;6.03;;
49876;SDS011;35771;48.978;9.294;2022-08-18T08:31:01;8.18;;;6.40;;
49876;SDS011;35771;48.978;9.294;2022-08-18T08:33:36;7.57;;;5.90;;
49876;SDS011;35771;48.978;9.294;2022-08-18T08:36:11;8.27;;;6.10;;
49876;SDS011;35771;48.978;9.294;2022-08-18T08:38:44;10.43;;;5.80;;
49876;SDS011;35771;48.978;9.294;2022-08-18T08:41:14;15.38;;;6.18;;
49876;SDS011;35771;48.978;9.294;2022-08-18T08:43:46;8.15;;;5.93;;
49876;SDS011;35771;48.978;9.294;2022-08-18T08:46:21;5.65;;;4.90;;
49876;SDS011;35771;48.978;9.294;2022-08-18T08:51:28;8.05;;;5.65;;
49876;SDS011;35771;48.978;9.294;2022-08-18T08:54:00;9.20;;;5.57;;
49876;SDS011;35771;48.978;9.294;2022-08-18T08:56:33;8.55;;;5.13;;
49876;SDS011;35771;48.978;9.294;2022-08-18T08:59:05;11.32;;;6.63;;
49876;SDS011;35771;48.978;9.294;2022-08-18T09:01:36;8.45;;;6.25;;
49876;SDS011;35771;48.978;9.294;2022-08-18T09:04:13;12.48;;;7.03;;
49876;SDS011;35771;48.978;9.294;2022-08-18T09:06:54;8.02;;;6.53;;
49876;SDS011;35771;48.978;9.294;2022-08-18T09:09:36;9.05;;;6.57;;
49876;SDS011;35771;48.978;9.294;2022-08-18T09:12:28;30.42;;;9.90;;
49876;SDS011;35771;48.978;9.294;2022-08-18T09:15:14;8.68;;;6.38;;
49876;SDS011;35771;48.978;9.294;2022-08-18T09:17:54;10.98;;;6.65;;
49876;SDS011;35771;48.978;9.294;2022-08-18T09:20:36;11.82;;;6.13;;
49876;SDS011;35771;48.978;9.294;2022-08-18T09:23:17;12.30;;;6.40;;
49876;SDS011;35771;48.978;9.294;2022-08-18T09:25:48;16.77;;;6.97;;
49876;SDS011;35771;48.978;9.294;2022-08-18T09:28:17;9.55;;;6.75;;
49876;SDS011;35771;48.978;9.294;2022-08-18T09:30:47;12.63;;;6.25;;
49876;SDS011;35771;48.978;9.294;2022-08-18T09:33:29;12.55;;;6.55;;
49876;SDS011;35771;48.978;9.294;2022-08-18T09:36:14;9.48;;;6.57;;
49876;SDS011;35771;48.978;9.294;2022-08-18T09:38:51;9.75;;;6.15;;
49876;SDS011;35771;48.978;9.294;2022-08-18T09:41:44;8.88;;;6.25;;
49876;SDS011;35771;48.978;9.294;2022-08-18T09:53:13;10.00;;;6.20;;
49876;SDS011;35771;48.978;9.294;2022-08-18T09:55:58;7.50;;;6.45;;
49876;SDS011;35771;48.978;9.294;2022-08-18T10:01:30;13.20;;;5.95;;
49876;SDS011;35771;48.978;9.294;2022-08-18T10:04:23;8.23;;;6.00;;
49876;SDS011;35771;48.978;9.294;2022-08-18T10:06:52;9.55;;;6.32;;
49876;SDS011;35771;48.978;9.294;2022-08-18T10:09:25;12.68;;;6.15;;
49876;SDS011;35771;48.978;9.294;2022-08-18T10:15:19;7.82;;;6.15;;
49876;SDS011;35771;48.978;9.294;2022-08-18T10:18:08;13.00;;;6.10;;
49876;SDS011;35771;48.978;9.294;2022-08-18T10:20:47;8.13;;;5.90;;
49876;SDS011;35771;48.978;9.294;2022-08-18T10:23:43;8.07;;;6.13;;
49876;SDS011;35771;48.978;9.294;2022-08-18T10:38:18;11.02;;;7.28;;
49876;SDS011;35771;48.978;9.294;2022-08-18T10:40:51;8.05;;;6.50;;
49876;SDS011;35771;48.978;9.294;2022-08-18T10:43:22;7.90;;;5.28;;
49876;SDS011;35771;48.978;9.294;2022-08-18T10:46:00;9.93;;;7.00;;
49876;SDS011;35771;48.978;9.294;2022-08-18T10:48:29;11.50;;;6.60;;
49876;SDS011;35771;48.978;9.294;2022-08-18T10:50:59;8.65;;;5.93;;
49876;SDS011;35771;48.978;9.294;2022-08-18T10:53:33;8.93;;;7.53;;
49876;SDS011;35771;48.978;9.294;2022-08-18T10:56:08;11.43;;;7.10;;
49876;SDS011;35771;48.978;9.294;2022-08-18T10:58:39;11.93;;;6.85;;
49876;SDS011;35771;48.978;9.294;2022-08-18T11:01:25;8.88;;;6.95;;
49876;SDS011;35771;48.978;9.294;2022-08-18T11:04:04;14.45;;;7.28;;
49876;SDS011;35771;48.978;9.294;2022-08-18T11:06:37;8.75;;;6.80;;
49876;SDS011;35771;48.978;9.294;2022-08-18T11:09:06;11.80;;;7.25;;
49876;SDS011;35771;48.978;9.294;2022-08-18T11:11:35;12.82;;;7.13;;
49876;SDS011;35771;48.978;9.294;2022-08-18T11:14:09;13.77;;;7.80;;
49876;SDS011;35771;48.978;9.294;2022-08-18T11:16:47;10.73;;;7.78;;
49876;SDS011;35771;48.978;9.294;2022-08-18T11:19:22;11.25;;;6.90;;
49876;SDS011;35771;48.978;9.294;2022-08-18T11:21:50;11.75;;;7.40;;
49876;SDS011;35771;48.978;9.294;2022-08-18T11:24:18;9.40;;;7.50;;
49876;SDS011;35771;48.978;9.294;2022-08-18T11:26:48;17.55;;;7.35;;
49876;SDS011;35771;48.978;9.294;2022-08-18T11:29:27;12.00;;;7.00;;
49876;SDS011;35771;48.978;9.294;2022-08-18T11:31:56;11.68;;;8.07;;
49876;SDS011;35771;48.978;9.294;2022-08-18T11:34:28;12.40;;;7.28;;
49876;SDS011;35771;48.978;9.294;2022-08-18T11:37:00;8.93;;;7.03;;
49876;SDS011;35771;48.978;9.294;2022-08-18T11:39:29;10.32;;;7.50;;
49876;SDS011;35771;48.978;9.294;2022-08-18T11:41:56;8.52;;;6.82;;
49876;SDS011;35771;48.978;9.294;2022-08-18T11:44:25;10.05;;;7.55;;
49876;SDS011;35771;48.978;9.294;2022-08-18T11:47:07;11.90;;;7.05;;
49876;SDS011;35771;48.978;9.294;2022-08-18T11:49:48;9.77;;;6.43;;
49876;SDS011;35771;48.978;9.294;2022-08-18T11:52:22;8.90;;;6.82;;
49876;SDS011;35771;48.978;9.294;2022-08-18T11:54:51;8.68;;;7.05;;
49876;SDS011;35771;48.978;9.294;2022-08-18T11:57:27;9.43;;;6.30;;
49876;SDS011;35771;48.978;9.294;2022-08-18T12:03:19;7.68;;;4.78;;
49876;SDS011;35771;48.978;9.294;2022-08-18T12:05:53;10.15;;;5.70;;
49876;SDS011;35771;48.978;9.294;2022-08-18T12:08:25;6.90;;;5.80;;
49876;SDS011;35771;48.978;9.294;2022-08-18T12:11:02;10.20;;;5.65;;
49876;SDS011;35771;48.978;9.294;2022-08-18T12:13:31;7.13;;;5.15;;
49876;SDS011;35771;48.978;9.294;2022-08-18T12:16:08;9.20;;;5.18;;
49876;SDS011;35771;48.978;9.294;2022-08-18T12:18:37;6.55;;;4.80;;
49876;SDS011;35771;48.978;9.294;2022-08-18T12:21:06;8.90;;;5.15;;
49876;SDS011;35771;48.978;9.294;2022-08-18T12:23:35;12.90;;;5.70;;
49876;SDS011;35771;48.978;9.294;2022-08-18T12:26:04;6.57;;;5.35;;
49876;SDS011;35771;48.978;9.294;2022-08-18T12:28:32;8.15;;;5.40;;
49876;SDS011;35771;48.978;9.294;2022-08-18T12:30:58;9.43;;;5.00;;
49876;SDS011;35771;48.978;9.294;2022-08-18T12:33:24;7.95;;;4.72;;
49876;SDS011;35771;48.978;9.294;2022-08-18T12:35:51;7.65;;;5.20;;
49876;SDS011;35771;48.978;9.294;2022-08-18T12:38:19;6.35;;;4.97;;
49876;SDS011;35771;48.978;9.294;2022-08-18T12:40:47;6.22;;;4.82;;
49876;SDS011;35771;48.978;9.294;2022-08-18T12:43:14;13.57;;;5.60;;
49876;SDS011;35771;48.978;9.294;2022-08-18T12:45:40;5.07;;;4.57;;
49876;SDS011;35771;48.978;9.294;2022-08-18T12:48:07;6.95;;;4.32;;
49876;SDS011;35771;48.978;9.294;2022-08-18T12:50:34;7.32;;;4.68;;
49876;SDS011;35771;48.978;9.294;2022-08-18T12:53:01;10.77;;;4.57;;
49876;SDS011;35771;48.978;9.294;2022-08-18T12:55:30;7.05;;;5.00;;
49876;SDS011;35771;48.978;9.294;2022-08-18T12:58:00;5.32;;;4.82;;
49876;SDS011;35771;48.978;9.294;2022-08-18T13:00:28;9.07;;;5.18;;
49876;SDS011;35771;48.978;9.294;2022-08-18T13:02:54;6.85;;;4.53;;
49876;SDS011;35771;48.978;9.294;2022-08-18T13:05:21;7.32;;;4.55;;
49876;SDS011;35771;48.978;9.294;2022-08-18T13:07:47;5.53;;;3.97;;
49876;SDS011;35771;48.978;9.294;2022-08-18T13:10:14;8.50;;;4.97;;
49876;SDS011;35771;48.978;9.294;2022-08-18T13:12:42;6.10;;;4.63;;
49876;SDS011;35771;48.978;9.294;2022-08-18T13:15:09;5.30;;;3.95;;
49876;SDS011;35771;48.978;9.294;2022-08-18T13:17:36;6.47;;;4.45;;
49876;SDS011;35771;48.978;9.294;2022-08-18T13:20:05;6.63;;;4.75;;
49876;SDS011;35771;48.978;9.294;2022-08-18T13:22:34;6.63;;;4.88;;
49876;SDS011;35771;48.978;9.294;2022-08-18T13:25:01;4.55;;;4.15;;
49876;SDS011;35771;48.978;9.294;2022-08-18T13:27:30;7.30;;;4.75;;
49876;SDS011;35771;48.978;9.294;2022-08-18T13:29:57;5.82;;;4.35;;
49876;SDS011;35771;48.978;9.294;2022-08-18T13:32:24;4.95;;;4.38;;
49876;SDS011;35771;48.978;9.294;2022-08-18T13:34:51;7.82;;;3.92;;
49876;SDS011;35771;48.978;9.294;2022-08-18T13:37:19;6.95;;;4.28;;
49876;SDS011;35771;48.978;9.294;2022-08-18T13:39:45;5.80;;;4.40;;
49876;SDS011;35771;48.978;9.294;2022-08-18T13:42:12;5.45;;;4.40;;
49876;SDS011;35771;48.978;9.294;2022-08-18T13:44:43;4.30;;;3.53;;
49876;SDS011;35771;48.978;9.294;2022-08-18T13:47:12;9.65;;;4.10;;
49876;SDS011;35771;48.978;9.294;2022-08-18T13:49:40;5.38;;;4.20;;
49876;SDS011;35771;48.978;9.294;2022-08-18T13:52:07;4.78;;;4.18;;
49876;SDS011;35771;48.978;9.294;2022-08-18T13:54:37;7.32;;;4.70;;
49876;SDS011;35771;48.978;9.294;2022-08-18T13:57:04;5.60;;;3.75;;
49876;SDS011;35771;48.978;9.294;2022-08-18T13:59:31;6.53;;;4.25;;
49876;SDS011;35771;48.978;9.294;2022-08-18T14:01:58;6.00;;;4.30;;
49876;SDS011;35771;48.978;9.294;2022-08-18T14:04:27;5.90;;;4.40;;
49876;SDS011;35771;48.978;9.294;2022-08-18T14:06:54;6.68;;;4.65;;
49876;SDS011;35771;48.978;9.294;2022-08-18T14:09:20;4.95;;;4.18;;
49876;SDS011;35771;48.978;9.294;2022-08-18T14:11:47;8.00;;;4.28;;
49876;SDS011;35771;48.978;9.294;2022-08-18T14:14:14;8.82;;;4.70;;
49876;SDS011;35771;48.978;9.294;2022-08-18T14:16:41;6.47;;;3.72;;
49876;SDS011;35771;48.978;9.294;2022-08-18T14:19:08;4.88;;;4.35;;
49876;SDS011;35771;48.978;9.294;2022-08-18T14:21:53;5.72;;;4.40;;
49876;SDS011;35771;48.978;9.294;2022-08-18T14:24:38;5.30;;;4.38;;
49876;SDS011;35771;48.978;9.294;2022-08-18T14:27:24;6.65;;;4.78;;
49876;SDS011;35771;48.978;9.294;2022-08-18T14:32:19;7.00;;;4.03;;
49876;SDS011;35771;48.978;9.294;2022-08-18T14:34:47;6.80;;;4.25;;
49876;SDS011;35771;48.978;9.294;2022-08-18T14:37:15;5.90;;;4.10;;
49876;SDS011;35771;48.978;9.294;2022-08-18T14:39:41;6.75;;;4.50;;
49876;SDS011;35771;48.978;9.294;2022-08-18T14:42:08;4.63;;;4.18;;
49876;SDS011;35771;48.978;9.294;2022-08-18T14:44:37;8.20;;;4.10;;
49876;SDS011;35771;48.978;9.294;2022-08-18T14:47:03;8.38;;;3.78;;
49876;SDS011;35771;48.978;9.294;2022-08-18T14:49:30;10.52;;;3.90;;
49876;SDS011;35771;48.978;9.294;2022-08-18T14:51:57;4.63;;;4.00;;
49876;SDS011;35771;48.978;9.294;2022-08-18T14:54:26;6.15;;;4.00;;
49876;SDS011;35771;48.978;9.294;2022-08-18T14:56:53;4.45;;;4.05;;
49876;SDS011;35771;48.978;9.294;2022-08-18T14:59:20;4.40;;;3.85;;
49876;SDS011;35771;48.978;9.294;2022-08-18T15:01:47;5.10;;;3.47;;
49876;SDS011;35771;48.978;9.294;2022-08-18T15:04:14;9.65;;;4.28;;
49876;SDS011;35771;48.978;9.294;2022-08-18T15:06:43;8.52;;;4.47;;
49876;SDS011;35771;48.978;9.294;2022-08-18T15:09:11;5.68;;;3.72;;
49876;SDS011;35771;48.978;9.294;2022-08-18T15:11:39;6.45;;;4.13;;
49876;SDS011;35771;48.978;9.294;2022-08-18T15:14:05;4.10;;;3.60;;
49876;SDS011;35771;48.978;9.294;2022-08-18T15:16:32;7.78;;;4.10;;
49876;SDS011;35771;48.978;9.294;2022-08-18T15:18:59;4.22;;;3.70;;
49876;SDS011;35771;48.978;9.294;2022-08-18T15:21:29;5.70;;;3.72;;
49876;SDS011;35771;48.978;9.294;2022-08-18T15:24:14;4.00;;;3.60;;
49876;SDS011;35771;48.978;9.294;2022-08-18T15:26:59;5.82;;;3.78;;
49876;SDS011;35771;48.978;9.294;2022-08-18T15:29:27;4.18;;;3.78;;
49876;SDS011;35771;48.978;9.294;2022-08-18T15:31:54;5.95;;;4.10;;
49876;SDS011;35771;48.978;9.294;2022-08-18T15:34:21;6.90;;;3.72;;
49876;SDS011;35771;48.978;9.294;2022-08-18T15:36:48;4.88;;;3.55;;
49876;SDS011;35771;48.978;9.294;2022-08-18T15:39:15;7.68;;;4.32;;
49876;SDS011;35771;48.978;9.294;2022-08-18T15:41:42;4.38;;;3.85;;
49876;SDS011;35771;48.978;9.294;2022-08-18T15:44:15;3.97;;;3.60;;
49876;SDS011;35771;48.978;9.294;2022-08-18T15:46:46;4.72;;;4.10;;
49876;SDS011;35771;48.978;9.294;2022-08-18T15:49:13;4.90;;;3.85;;
49876;SDS011;35771;48.978;9.294;2022-08-18T15:51:44;7.40;;;4.57;;
49876;SDS011;35771;48.978;9.294;2022-08-18T15:54:28;5.05;;;3.78;;
49876;SDS011;35771;48.978;9.294;2022-08-18T15:56:55;4.95;;;4.22;;
49876;SDS011;35771;48.978;9.294;2022-08-18T15:59:23;6.35;;;4.03;;
49876;SDS011;35771;48.978;9.294;2022-08-18T16:01:50;6.70;;;4.15;;
49876;SDS011;35771;48.978;9.294;2022-08-18T16:04:17;5.38;;;4.25;;
49876;SDS011;35771;48.978;9.294;2022-08-18T16:06:43;4.82;;;3.75;;
